Valier, Pennsylvania
Current Conditions -  °F | °C
As of 9:53 PM on Thursday 18 Dec 2014 (Local Time) from KDUJ Reporting Station
Overcast Overcast  
Wind Chill: 17°   Ceiling: 700
Heat Index: 26°   Visibility: 7mi
Dew Point: 24°   Wind: 9mph
Humidity: 92%   Direction: 270°W
Pressure: 30.04"   Gusts: NA
Location:  40.92°N, 79.04°W
Report Text: KDUJ 190253Z AUTO 27008KT 7SM BKN007 OVC014 M03/M04 A3004 RMK AO2 CIG 005V010 SLP194 I1000 I3000 T10331044 58007
Loading
Personal Weather Stations






























Interactive Weather Map New forecast layout! Learn more

10-Day Weather Forecast

Advertisements
Track Severe Weather on mobile